createdAt,value
2023-04-02T00:00:13.850Z,99716.69
2023-04-02T00:02:55.392Z,99713.13
2023-04-02T00:05:47.187Z,99708.78
2023-04-02T00:08:28.278Z,99706.22
2023-04-02T00:10:58.380Z,99710.75
2023-04-02T00:13:32.778Z,99715.13
2023-04-02T00:16:02.051Z,99714.28
2023-04-02T00:18:31.900Z,99710.81
2023-04-02T00:21:09.195Z,99711.00
2023-04-02T00:23:40.177Z,99723.75
2023-04-02T00:26:21.789Z,99700.63
2023-04-02T00:28:49.918Z,99705.75
2023-04-02T00:31:20.239Z,99709.03
2023-04-02T00:33:49.297Z,99709.03
2023-04-02T00:36:19.135Z,99703.78
2023-04-02T00:38:50.573Z,99711.66
2023-04-02T00:41:24.281Z,99691.88
2023-04-02T00:43:58.514Z,99701.19
2023-04-02T00:46:30.839Z,99699.72
2023-04-02T00:49:03.474Z,99699.59
2023-04-02T00:51:36.391Z,99698.88
2023-04-02T00:54:10.669Z,99698.81
2023-04-02T00:56:42.485Z,99684.47
2023-04-02T00:59:20.291Z,99690.41
2023-04-02T01:01:53.458Z,99687.72
2023-04-02T01:04:30.886Z,99688.81
2023-04-02T01:06:59.567Z,99686.19
2023-04-02T01:09:48.832Z,99674.94
2023-04-02T01:12:38.012Z,99680.06
2023-04-02T01:15:13.396Z,99680.06
2023-04-02T01:17:58.693Z,99682.75
2023-04-02T01:20:50.918Z,99668.25
2023-04-02T01:23:26.758Z,99685.16
2023-04-02T01:26:03.500Z,99682.63
2023-04-02T01:28:36.618Z,99685.31
2023-04-02T01:31:06.078Z,99685.16
2023-04-02T01:33:35.594Z,99689.56
2023-04-02T01:36:09.730Z,99686.94
2023-04-02T01:38:41.761Z,99680.97
2023-04-02T01:41:18.945Z,99692.38
2023-04-02T01:43:51.832Z,99694.06
2023-04-02T01:46:29.197Z,99689.88
2023-04-02T01:49:00.168Z,99689.09
2023-04-02T01:51:30.349Z,99676.28
2023-04-02T01:54:00.760Z,99689.09
2023-04-02T01:56:30.153Z,99679.41
2023-04-02T01:58:59.165Z,99675.06
2023-04-02T02:01:35.323Z,99676.78
2023-04-02T02:04:04.189Z,99665.69
2023-04-02T02:06:31.906Z,99674.22
2023-04-02T02:09:04.664Z,99667.41
2023-04-02T02:11:33.936Z,99668.31
2023-04-02T02:14:06.266Z,99679.47
2023-04-02T02:16:41.417Z,99659.00
2023-04-02T02:19:20.329Z,99662.38
2023-04-02T02:21:51.796Z,99653.53
2023-04-02T02:24:23.780Z,99655.97
2023-04-02T02:27:08.771Z,99653.50
2023-04-02T02:29:40.567Z,99655.19
2023-04-02T02:32:11.828Z,99645.78
2023-04-02T02:34:44.126Z,99632.19
2023-04-02T02:37:16.396Z,99640.69
2023-04-02T02:39:46.621Z,99648.50
2023-04-02T02:42:18.454Z,99647.88
2023-04-02T02:44:47.800Z,99651.44
2023-04-02T02:47:20.030Z,99636.00
2023-04-02T02:49:51.378Z,99632.72
2023-04-02T02:52:20.876Z,99636.19
2023-04-02T02:54:52.089Z,99626.03
2023-04-02T02:57:23.105Z,99633.00
2023-04-02T02:59:53.006Z,99623.69
2023-04-02T03:02:22.970Z,99624.59
2023-04-02T03:04:53.769Z,99628.13
2023-04-02T03:07:24.952Z,99633.41
2023-04-02T03:09:59.589Z,99628.31
2023-04-02T03:12:42.105Z,99623.09
2023-04-02T03:15:19.186Z,99631.81
2023-04-02T03:17:53.613Z,99617.00
2023-04-02T03:20:27.805Z,99625.72
2023-04-02T03:23:00.100Z,99618.72
2023-04-02T03:25:36.085Z,99613.53
2023-04-02T03:28:07.806Z,99620.53
2023-04-02T03:30:42.394Z,99617.97
2023-04-02T03:33:17.493Z,99610.13
2023-04-02T03:35:52.813Z,99611.78
2023-04-02T03:38:25.167Z,99596.34
2023-04-02T03:41:01.533Z,99606.59
2023-04-02T03:43:34.646Z,99602.28
2023-04-02T03:46:16.229Z,99610.91
2023-04-02T03:48:46.146Z,99612.63
2023-04-02T03:51:20.507Z,99608.25
2023-04-02T03:53:49.399Z,99606.66
2023-04-02T03:56:26.088Z,99607.41
2023-04-02T03:59:03.205Z,99608.25
2023-04-02T04:01:37.620Z,99609.94
2023-04-02T04:04:12.531Z,99614.22
2023-04-02T04:06:43.362Z,99608.13
2023-04-02T04:09:18.287Z,99602.72
2023-04-02T04:11:48.868Z,99597.50
2023-04-02T04:14:21.412Z,99607.81
2023-04-02T04:16:54.016Z,99604.38
2023-04-02T04:19:28.563Z,99603.44
2023-04-02T04:22:11.074Z,99600.78
2023-04-02T04:24:39.169Z,99594.75
2023-04-02T04:27:14.029Z,99594.56
2023-04-02T04:29:49.380Z,99601.34
2023-04-02T04:32:24.420Z,99600.34
2023-04-02T04:34:58.482Z,99594.38
2023-04-02T04:37:31.979Z,99600.84
2023-04-02T04:40:03.621Z,99603.34
2023-04-02T04:42:36.331Z,99592.94
2023-04-02T04:45:16.884Z,99585.41
2023-04-02T04:47:51.844Z,99597.06
2023-04-02T04:50:30.289Z,99595.47
2023-04-02T04:53:05.669Z,99591.88
2023-04-02T04:55:38.658Z,99585.81
2023-04-02T04:58:18.874Z,99599.44
2023-04-02T05:00:56.396Z,99602.06
2023-04-02T05:03:39.666Z,99577.13
2023-04-02T05:06:15.843Z,99602.78
2023-04-02T05:08:47.636Z,99583.69
2023-04-02T05:11:23.669Z,99588.91
2023-04-02T05:13:56.934Z,99588.22
2023-04-02T05:16:30.323Z,99567.63
2023-04-02T05:19:07.910Z,99563.25
2023-04-02T05:21:42.434Z,99570.13
2023-04-02T05:24:36.513Z,99578.75
2023-04-02T05:27:15.657Z,99569.31
2023-04-02T05:29:50.474Z,99573.50
2023-04-02T05:32:23.115Z,99571.84
2023-04-02T05:34:54.777Z,99571.75
2023-04-02T05:37:30.441Z,99570.06
2023-04-02T05:40:00.663Z,99582.28
2023-04-02T05:42:31.785Z,99567.59
2023-04-02T05:45:09.605Z,99562.41
2023-04-02T05:47:43.740Z,99567.59
2023-04-02T05:50:24.555Z,99565.06
2023-04-02T05:52:58.900Z,99573.66
2023-04-02T05:55:37.192Z,99559.97
2023-04-02T05:58:34.001Z,99563.38
2023-04-02T06:01:05.814Z,99563.97
2023-04-02T06:03:44.247Z,99569.28
2023-04-02T06:06:18.871Z,99559.72
2023-04-02T06:08:56.368Z,99563.06
2023-04-02T06:11:28.021Z,99579.69
2023-04-02T06:13:55.907Z,99562.47
2023-04-02T06:16:28.175Z,99557.38
2023-04-02T06:19:01.321Z,99564.81
2023-04-02T06:21:29.545Z,99566.47
2023-04-02T06:24:03.499Z,99566.41
2023-04-02T06:26:35.149Z,99558.06
2023-04-02T06:29:08.703Z,99557.13
2023-04-02T06:31:44.971Z,99569.13
2023-04-02T06:34:17.386Z,99570.13
2023-04-02T06:36:47.766Z,99562.16
2023-04-02T06:39:19.899Z,99573.47
2023-04-02T06:41:53.091Z,99562.47
2023-04-02T06:44:24.444Z,99567.38
2023-04-02T06:46:55.607Z,99570.72
2023-04-02T06:49:29.575Z,99567.38
2023-04-02T06:52:00.437Z,99567.13
2023-04-02T06:54:30.004Z,99569.50
2023-04-02T06:56:57.700Z,99569.56
2023-04-02T06:59:26.262Z,99555.88
2023-04-02T07:01:58.932Z,99562.63
2023-04-02T07:04:27.362Z,99568.44
2023-04-02T07:06:55.587Z,99570.47
2023-04-02T07:09:23.201Z,99570.16
2023-04-02T07:11:52.358Z,99563.50
2023-04-02T07:14:20.317Z,99570.00
2023-04-02T07:16:48.008Z,99569.84
2023-04-02T07:19:19.294Z,99569.91
2023-04-02T07:21:49.215Z,99550.59
2023-04-02T07:24:16.849Z,99567.22
2023-04-02T07:26:44.626Z,99564.16
2023-04-02T07:29:16.726Z,99561.41
2023-04-02T07:31:45.018Z,99564.69
2023-04-02T07:34:12.691Z,99561.19
2023-04-02T07:36:40.462Z,99561.28
2023-04-02T07:39:08.381Z,99559.25
2023-04-02T07:41:51.328Z,99554.28
2023-04-02T07:44:20.523Z,99550.03
2023-04-02T07:46:48.334Z,99556.69
2023-04-02T07:49:18.448Z,99541.66
2023-04-02T07:51:46.173Z,99553.28
2023-04-02T07:54:13.913Z,99550.13
2023-04-02T07:56:41.492Z,99562.91
2023-04-02T07:59:09.677Z,99553.53
2023-04-02T08:01:39.427Z,99554.53
2023-04-02T08:04:17.797Z,99548.19
2023-04-02T08:06:47.153Z,99554.53
2023-04-02T08:09:15.788Z,99543.59
2023-04-02T08:11:44.132Z,99540.97
2023-04-02T08:14:12.374Z,99546.94
2023-04-02T08:16:52.108Z,99542.41
2023-04-02T08:19:24.125Z,99546.47
2023-04-02T08:21:51.918Z,99538.81
2023-04-02T08:24:19.720Z,99547.78
2023-04-02T08:26:48.986Z,99550.56
2023-04-02T08:29:16.707Z,99543.34
2023-04-02T08:31:45.272Z,99545.94
2023-04-02T08:34:14.491Z,99536.53
2023-04-02T08:36:44.554Z,99544.38
2023-04-02T08:39:12.517Z,99538.16
2023-04-02T08:41:47.306Z,99540.97
2023-04-02T08:44:38.701Z,99541.13
2023-04-02T08:47:08.156Z,99532.16
2023-04-02T08:49:43.166Z,99545.84
2023-04-02T08:52:21.604Z,99541.38
2023-04-02T08:54:49.672Z,99546.63
2023-04-02T08:57:27.512Z,99535.28
2023-04-02T09:00:01.742Z,99546.47
2023-04-02T09:02:37.986Z,99539.56
2023-04-02T09:05:17.179Z,99535.88
2023-04-02T09:07:47.382Z,99539.19
2023-04-02T09:10:16.734Z,99540.91
2023-04-02T09:12:52.690Z,99529.00
2023-04-02T09:15:28.738Z,99534.75
2023-04-02T09:18:00.438Z,99547.00
2023-04-02T09:20:33.516Z,99528.16
2023-04-02T09:23:01.732Z,99540.00
2023-04-02T09:25:31.092Z,99544.31
2023-04-02T09:28:04.925Z,99537.56
2023-04-02T09:30:49.465Z,99535.75
2023-04-02T09:33:17.177Z,99545.94
2023-04-02T09:35:56.925Z,99550.94
2023-04-02T09:38:26.674Z,99546.69
2023-04-02T09:40:59.753Z,99539.00
2023-04-02T09:43:29.890Z,99553.41
2023-04-02T09:46:02.962Z,99543.13
2023-04-02T09:48:34.226Z,99552.28
2023-04-02T09:51:23.080Z,99549.53
2023-04-02T09:54:06.352Z,99547.63
2023-04-02T09:56:36.803Z,99556.94
2023-04-02T09:59:06.603Z,99553.81
2023-04-02T10:01:36.855Z,99548.28
2023-04-02T10:04:06.748Z,99549.72
2023-04-02T10:06:35.785Z,99552.13
2023-04-02T10:09:25.896Z,99554.06
2023-04-02T10:11:54.702Z,99552.00
2023-04-02T10:14:27.878Z,99554.41
2023-04-02T10:16:58.922Z,99553.47
2023-04-02T10:19:31.329Z,99554.41
2023-04-02T10:22:06.653Z,99553.94
2023-04-02T10:24:34.757Z,99566.91
2023-04-02T10:27:11.445Z,99568.41
2023-04-02T10:30:09.664Z,99561.31
2023-04-02T10:32:44.540Z,99570.66
2023-04-02T10:35:21.525Z,99567.69
2023-04-02T10:38:09.481Z,99566.56
2023-04-02T10:40:41.986Z,99568.34
2023-04-02T10:43:48.612Z,99566.72
2023-04-02T10:46:25.097Z,99568.03
2023-04-02T10:49:03.373Z,99572.56
2023-04-02T10:51:40.521Z,99561.78
2023-04-02T10:54:25.638Z,99573.00
2023-04-02T10:56:56.644Z,99574.94
2023-04-02T10:59:28.820Z,99577.56
2023-04-02T11:01:59.436Z,99568.06
2023-04-02T11:04:31.176Z,99587.66
2023-04-02T11:07:13.840Z,99582.13
2023-04-02T11:09:50.192Z,99591.28
2023-04-02T11:12:23.167Z,99588.34
2023-04-02T11:14:55.750Z,99596.00
2023-04-02T11:17:24.823Z,99597.78
2023-04-02T11:19:52.490Z,99599.50
2023-04-02T11:22:22.563Z,99598.44
2023-04-02T11:24:53.331Z,99592.53
2023-04-02T11:27:25.339Z,99599.06
2023-04-02T11:30:05.345Z,99607.16
2023-04-02T11:32:38.457Z,99600.38
2023-04-02T11:35:36.495Z,99603.75
2023-04-02T11:38:42.461Z,99605.81
2023-04-02T11:41:11.897Z,99608.44
2023-04-02T11:43:51.157Z,99611.56
2023-04-02T11:46:43.818Z,99606.78
2023-04-02T11:49:35.292Z,99618.31
2023-04-02T11:52:11.967Z,99604.00
2023-04-02T11:54:40.985Z,99605.56
2023-04-02T11:57:23.133Z,99608.63
2023-04-02T12:00:18.821Z,99608.19
2023-04-02T12:03:01.941Z,99610.25
2023-04-02T12:05:34.721Z,99619.28
2023-04-02T12:08:19.760Z,99610.19
2023-04-02T12:10:56.659Z,99617.59
2023-04-02T12:13:53.805Z,99621.06
2023-04-02T12:16:22.790Z,99630.44
2023-04-02T12:18:52.561Z,99627.34
2023-04-02T12:21:22.608Z,99622.75
2023-04-02T12:23:53.636Z,99617.41
2023-04-02T12:26:33.968Z,99607.47
2023-04-02T12:29:25.257Z,99609.84
2023-04-02T12:31:53.905Z,99613.03
2023-04-02T12:34:23.355Z,99621.84
2023-04-02T12:36:58.799Z,99612.47
2023-04-02T12:39:28.301Z,99614.09
2023-04-02T12:41:56.672Z,99611.94
2023-04-02T12:44:27.848Z,99616.13
2023-04-02T12:46:56.780Z,99609.91
2023-04-02T12:49:33.360Z,99621.97
2023-04-02T12:52:03.706Z,99616.47
2023-04-02T12:54:36.865Z,99631.41
2023-04-02T12:57:34.230Z,99631.72
2023-04-02T13:00:32.181Z,99633.41
2023-04-02T13:03:08.426Z,99635.97
2023-04-02T13:05:40.250Z,99627.22
2023-04-02T13:08:17.837Z,99623.44
2023-04-02T13:10:52.010Z,99627.84
2023-04-02T13:13:26.684Z,99637.03
2023-04-02T13:16:04.434Z,99646.28
2023-04-02T13:18:35.227Z,99626.72
2023-04-02T13:21:04.724Z,99633.19
2023-04-02T13:23:35.007Z,99626.25
2023-04-02T13:26:12.087Z,99641.28
2023-04-02T13:28:39.816Z,99642.56
2023-04-02T13:31:14.949Z,99663.22
2023-04-02T13:33:45.310Z,99665.31
2023-04-02T13:36:15.873Z,99664.47
2023-04-02T13:38:43.963Z,99675.25
2023-04-02T13:41:20.380Z,99677.69
2023-04-02T13:43:49.400Z,99677.69
2023-04-02T13:46:21.260Z,99664.31
2023-04-02T13:48:50.543Z,99660.19
2023-04-02T13:51:19.448Z,99676.59
2023-04-02T13:53:49.918Z,99672.25
2023-04-02T13:56:17.713Z,99682.09
2023-04-02T13:58:45.727Z,99672.22
2023-04-02T14:01:15.597Z,99655.91
2023-04-02T14:03:46.837Z,99681.69
2023-04-02T14:06:22.086Z,99675.66
2023-04-02T14:08:59.167Z,99656.88
2023-04-02T14:11:36.151Z,99671.81
2023-04-02T14:14:34.559Z,99659.31
2023-04-02T14:17:13.555Z,99676.63
2023-04-02T14:20:05.492Z,99694.97
2023-04-02T14:22:46.628Z,99699.72
2023-04-02T14:25:22.144Z,99705.38
2023-04-02T14:27:58.575Z,99692.81
2023-04-02T14:30:38.630Z,99688.19
2023-04-02T14:33:14.777Z,99697.91
2023-04-02T14:35:47.162Z,99695.22
2023-04-02T14:38:24.994Z,99693.66
2023-04-02T14:40:59.861Z,99698.75
2023-04-02T14:43:32.621Z,99705.84
2023-04-02T14:46:02.316Z,99693.19
2023-04-02T14:48:48.558Z,99707.81
2023-04-02T14:51:25.353Z,99708.03
2023-04-02T14:54:01.011Z,99713.44
2023-04-02T14:56:33.608Z,99711.16
2023-04-02T14:59:07.433Z,99722.63
2023-04-02T15:01:40.891Z,99725.19
2023-04-02T15:04:14.802Z,99726.16
2023-04-02T15:06:49.371Z,99737.69
2023-04-02T15:09:23.932Z,99744.56
2023-04-02T15:11:55.444Z,99713.63
2023-04-02T15:14:27.463Z,99738.75
2023-04-02T15:16:57.680Z,99741.56
2023-04-02T15:19:25.737Z,99742.47
2023-04-02T15:22:14.412Z,99723.09
2023-04-02T15:24:52.667Z,99754.00
2023-04-02T15:27:35.711Z,99744.72
2023-04-02T15:30:07.314Z,99746.34
2023-04-02T15:32:40.212Z,99758.41
2023-04-02T15:35:22.083Z,99741.25
2023-04-02T15:37:59.616Z,99762.94
2023-04-02T15:40:51.306Z,99737.16
2023-04-02T15:43:25.271Z,99750.94
2023-04-02T15:46:05.662Z,99758.59
2023-04-02T15:48:49.932Z,99762.94
2023-04-02T15:51:36.428Z,99763.00
2023-04-02T15:54:19.729Z,99778.13
2023-04-02T15:56:56.817Z,99769.22
2023-04-02T15:59:44.307Z,99774.78
2023-04-02T16:02:40.555Z,99781.84
2023-04-02T16:05:17.769Z,99782.84
2023-04-02T16:08:07.139Z,99782.84
2023-04-02T16:10:42.648Z,99779.28
2023-04-02T16:13:19.217Z,99777.50
2023-04-02T16:15:51.887Z,99782.88
2023-04-02T16:18:30.366Z,99769.84
2023-04-02T16:21:01.525Z,99776.81
2023-04-02T16:23:34.298Z,99777.78
2023-04-02T16:26:17.886Z,99782.09
2023-04-02T16:28:56.868Z,99789.91
2023-04-02T16:31:31.593Z,99778.69
2023-04-02T16:34:06.662Z,99784.13
2023-04-02T16:36:42.536Z,99790.34
2023-04-02T16:39:22.590Z,99787.81
2023-04-02T16:42:04.452Z,99783.50
2023-04-02T16:44:43.591Z,99793.84
2023-04-02T16:47:21.201Z,99799.94
2023-04-02T16:49:57.483Z,99799.84
2023-04-02T16:52:35.481Z,99795.63
2023-04-02T16:55:25.768Z,99787.97
2023-04-02T16:58:07.078Z,99811.09
2023-04-02T17:00:41.560Z,99814.72
2023-04-02T17:03:29.460Z,99824.25
2023-04-02T17:06:04.777Z,99802.09
2023-04-02T17:08:42.003Z,99826.03
2023-04-02T17:11:22.969Z,99818.22
2023-04-02T17:14:02.223Z,99831.28
2023-04-02T17:16:35.350Z,99825.22
2023-04-02T17:19:09.960Z,99822.66
2023-04-02T17:21:41.645Z,99827.91
2023-04-02T17:24:20.055Z,99839.13
2023-04-02T17:26:52.758Z,99847.59
2023-04-02T17:29:26.860Z,99839.97
2023-04-02T17:32:01.384Z,99836.47
2023-04-02T17:34:29.813Z,99847.53
2023-04-02T17:37:08.874Z,99832.06
2023-04-02T17:39:44.412Z,99845.72
2023-04-02T17:42:18.467Z,99851.75
2023-04-02T17:45:05.278Z,99844.78
2023-04-02T17:47:42.452Z,99836.13
2023-04-02T17:50:34.045Z,99831.94
2023-04-02T17:53:13.108Z,99839.88
2023-04-02T17:55:52.276Z,99845.09
2023-04-02T17:58:39.022Z,99839.19
2023-04-02T18:01:15.673Z,99842.59
2023-04-02T18:04:04.285Z,99843.63
2023-04-02T18:06:37.007Z,99835.75
2023-04-02T18:09:23.938Z,99834.19
2023-04-02T18:12:03.452Z,99847.03
2023-04-02T18:14:47.757Z,99859.25
2023-04-02T18:17:27.365Z,99860.94
2023-04-02T18:20:02.856Z,99864.47
2023-04-02T18:22:40.574Z,99868.00
2023-04-02T18:25:37.056Z,99857.75
2023-04-02T18:28:16.417Z,99868.97
2023-04-02T18:30:50.056Z,99879.28
2023-04-02T18:33:33.652Z,99877.56
2023-04-02T18:36:10.437Z,99879.41
2023-04-02T18:38:44.663Z,99878.47
2023-04-02T18:41:28.530Z,99877.69
2023-04-02T18:44:11.917Z,99882.03
2023-04-02T18:46:45.059Z,99876.88
2023-04-02T18:49:26.318Z,99880.44
2023-04-02T18:51:59.626Z,99887.25
2023-04-02T18:54:32.350Z,99891.56
2023-04-02T18:57:02.861Z,99883.84
2023-04-02T18:59:41.256Z,99889.88
2023-04-02T19:02:30.243Z,99904.66
2023-04-02T19:05:03.649Z,99895.16
2023-04-02T19:07:37.864Z,99880.53
2023-04-02T19:10:21.616Z,99884.19
2023-04-02T19:12:50.462Z,99908.31
2023-04-02T19:15:18.796Z,99913.56
2023-04-02T19:17:54.062Z,99914.31
2023-04-02T19:20:32.779Z,99911.00
2023-04-02T19:23:12.281Z,99907.47
2023-04-02T19:25:50.938Z,99915.28
2023-04-02T19:28:29.212Z,99914.53
2023-04-02T19:31:23.038Z,99917.94
2023-04-02T19:33:56.905Z,99910.22
2023-04-02T19:36:39.818Z,99911.13
2023-04-02T19:39:49.853Z,99896.47
2023-04-02T19:42:30.191Z,99920.75
2023-04-02T19:44:58.198Z,99918.13
2023-04-02T19:47:26.128Z,99920.75
2023-04-02T19:49:54.647Z,99925.06
2023-04-02T19:52:23.849Z,99916.41
2023-04-02T19:54:53.094Z,99927.63
2023-04-02T19:57:20.724Z,99925.84
2023-04-02T19:59:50.929Z,99926.88
2023-04-02T20:02:18.649Z,99912.31
2023-04-02T20:04:46.202Z,99929.50
2023-04-02T20:07:13.978Z,99924.22
2023-04-02T20:09:43.423Z,99919.25
2023-04-02T20:12:11.237Z,99926.97
2023-04-02T20:14:41.722Z,99927.91
2023-04-02T20:17:09.532Z,99915.00
2023-04-02T20:19:37.159Z,99939.88
2023-04-02T20:22:08.622Z,99932.06
2023-04-02T20:24:36.394Z,99935.63
2023-04-02T20:27:08.381Z,99932.25
2023-04-02T20:29:37.016Z,99943.53
2023-04-02T20:32:04.849Z,99935.75
2023-04-02T20:34:32.616Z,99940.09
2023-04-02T20:37:00.854Z,99946.25
2023-04-02T20:39:28.603Z,99944.56
2023-04-02T20:41:56.172Z,99937.66
2023-04-02T20:44:26.858Z,99952.47
2023-04-02T20:46:55.076Z,99943.81
2023-04-02T20:49:22.844Z,99948.00
2023-04-02T20:51:53.826Z,99947.13
2023-04-02T20:54:21.515Z,99942.03
2023-04-02T20:56:50.419Z,99945.41
2023-04-02T20:59:18.486Z,99943.75
2023-04-02T21:01:47.569Z,99941.94
2023-04-02T21:04:15.235Z,99944.56
2023-04-02T21:06:44.120Z,99948.88
2023-04-02T21:09:15.493Z,99946.25
2023-04-02T21:11:45.908Z,99949.63
2023-04-02T21:14:13.700Z,99945.44
2023-04-02T21:16:43.508Z,99946.19
2023-04-02T21:19:13.119Z,99949.66
2023-04-02T21:21:41.250Z,99942.97
2023-04-02T21:24:09.925Z,99959.25
2023-04-02T21:26:40.556Z,99963.56
2023-04-02T21:29:08.464Z,99965.28
2023-04-02T21:31:38.079Z,99961.06
2023-04-02T21:34:06.909Z,99962.66
2023-04-02T21:36:37.826Z,99969.72
2023-04-02T21:39:07.830Z,99973.22
2023-04-02T21:41:39.229Z,99970.69
2023-04-02T21:44:08.748Z,99975.06
2023-04-02T21:46:38.634Z,99967.28
2023-04-02T21:49:06.846Z,99972.59
2023-04-02T21:51:37.008Z,99965.59
2023-04-02T21:54:05.497Z,99973.53
2023-04-02T21:56:36.092Z,99968.34
2023-04-02T21:59:04.993Z,99975.41
2023-04-02T22:01:35.295Z,99972.03
2023-04-02T22:04:06.459Z,99968.78
2023-04-02T22:06:39.721Z,99977.28
2023-04-02T22:09:10.210Z,99971.22
2023-04-02T22:11:42.169Z,99977.41
2023-04-02T22:14:10.809Z,99963.78
2023-04-02T22:16:39.509Z,99967.19
2023-04-02T22:19:09.392Z,99976.63
2023-04-02T22:21:39.172Z,99959.53
2023-04-02T22:24:09.176Z,99970.81
2023-04-02T22:26:37.599Z,99972.53
2023-04-02T22:29:05.496Z,99980.28
2023-04-02T22:31:34.088Z,99977.66
2023-04-02T22:34:02.939Z,99978.59
2023-04-02T22:36:31.305Z,99965.81
2023-04-02T22:39:04.146Z,99977.88
2023-04-02T22:41:31.906Z,99989.09
2023-04-02T22:44:00.932Z,99983.03
2023-04-02T22:46:28.968Z,99988.25
2023-04-02T22:48:56.955Z,99967.75
2023-04-02T22:51:25.477Z,99980.66
2023-04-02T22:53:54.680Z,99987.38
2023-04-02T22:56:25.529Z,99979.81
2023-04-02T22:58:53.494Z,99990.16
2023-04-02T23:01:23.189Z,99983.31
2023-04-02T23:03:53.322Z,99991.97
2023-04-02T23:06:22.448Z,99995.41
2023-04-02T23:08:50.452Z,99993.88
2023-04-02T23:11:21.234Z,100006.03
2023-04-02T23:13:52.207Z,100003.41
2023-04-02T23:16:20.751Z,99983.75
2023-04-02T23:18:49.170Z,100010.41
2023-04-02T23:21:18.808Z,100008.69
2023-04-02T23:23:46.968Z,100007.03
2023-04-02T23:26:16.334Z,100014.06
2023-04-02T23:28:44.600Z,100007.91
2023-04-02T23:31:16.235Z,100013.34
2023-04-02T23:33:43.861Z,99997.63
2023-04-02T23:36:14.903Z,100015.09
2023-04-02T23:38:45.456Z,100003.00
2023-04-02T23:41:14.405Z,99991.06
2023-04-02T23:43:42.864Z,100010.78
2023-04-02T23:46:10.999Z,100011.75
2023-04-02T23:48:40.622Z,100010.97
2023-04-02T23:51:08.343Z,100008.34
2023-04-02T23:53:36.084Z,100006.78
2023-04-02T23:56:05.898Z,100001.50
2023-04-02T23:58:33.455Z,100013.66
